Terminal Aerodrome Forecast
Issued by NWS Charleston, WV

Current Version | Previous Version | Graphics & Text | Print | Product List | Glossary On
Versions: 1 2 3 4 5 6 7 8 9 10 11 12 13 14 15 16 17 18 19 20 21 22 23
000
FTUS41 KRLX 230800 AAA
TAFPKB
TAF AMD
KPKB 230848Z 2309/2406 18004KT 6SM HZ SCT060
     FM231100 22004KT 5SM BR FEW050
     FM231200 23005KT 6SM HZ SCT050 BKN100
     FM231400 24007KT P6SM VCTS BKN040CB BKN100
     FM231900 27007KT 4SM TSRA BR BKN030CB
     FM232300 33005KT 4SM -SHRA BR BKN024
     FM240300 36005KT 6SM BR BKN020
      AMD NOT SKED=

USA.gov is the U.S. government's official web portal to all federal, state and local government web resources and services.